createdAt,value
2023-04-24T00:01:57.613Z,9.55
2023-04-24T00:04:27.776Z,9.53
2023-04-24T00:06:58.600Z,9.64
2023-04-24T00:09:31.210Z,9.69
2023-04-24T00:12:01.414Z,9.75
2023-04-24T00:14:31.323Z,9.82
2023-04-24T00:17:01.372Z,9.83
2023-04-24T00:19:31.401Z,9.77
2023-04-24T00:22:01.559Z,9.57
2023-04-24T00:24:34.065Z,9.51
2023-04-24T00:27:03.974Z,9.51
2023-04-24T00:29:33.908Z,9.49
2023-04-24T00:32:03.894Z,9.58
2023-04-24T00:34:34.222Z,9.65
2023-04-24T00:37:04.718Z,9.75
2023-04-24T00:39:40.913Z,9.80
2023-04-24T00:42:11.286Z,9.81
2023-04-24T00:44:41.399Z,9.78
2023-04-24T00:47:11.764Z,9.92
2023-04-24T00:49:41.823Z,9.97
2023-04-24T00:52:11.952Z,10.03
2023-04-24T00:54:44.627Z,10.19
2023-04-24T00:57:14.796Z,10.15
2023-04-24T00:59:45.253Z,10.20
2023-04-24T01:02:16.806Z,10.26
2023-04-24T01:04:46.981Z,10.37
2023-04-24T01:07:16.941Z,10.41
2023-04-24T01:09:53.280Z,10.42
2023-04-24T01:12:23.624Z,10.45
2023-04-24T01:14:53.734Z,10.42
2023-04-24T01:17:23.652Z,10.45
2023-04-24T01:19:54.807Z,10.48
2023-04-24T01:22:27.792Z,10.53
2023-04-24T01:24:57.803Z,10.48
2023-04-24T01:27:27.905Z,10.49
2023-04-24T01:29:58.242Z,10.51
2023-04-24T01:32:28.826Z,10.46
2023-04-24T01:34:59.418Z,10.51
2023-04-24T01:37:33.371Z,10.42
2023-04-24T01:40:04.648Z,10.40
2023-04-24T01:42:34.889Z,10.42
2023-04-24T01:45:07.138Z,10.42
2023-04-24T01:47:37.273Z,10.31
2023-04-24T01:50:08.375Z,10.17
2023-04-24T01:52:40.983Z,10.05
2023-04-24T01:55:13.839Z,9.84
2023-04-24T01:57:44.767Z,9.79
2023-04-24T02:00:15.586Z,9.96
2023-04-24T02:02:47.938Z,10.07
2023-04-24T02:05:18.327Z,10.22
2023-04-24T02:07:50.889Z,10.30
2023-04-24T02:10:20.867Z,10.21
2023-04-24T02:12:50.770Z,10.22
2023-04-24T02:15:20.650Z,10.16
2023-04-24T02:17:50.680Z,10.20
2023-04-24T02:20:20.660Z,10.24
2023-04-24T02:22:53.247Z,10.25
2023-04-24T02:25:23.426Z,10.09
2023-04-24T02:27:53.285Z,10.02
2023-04-24T02:30:23.448Z,9.96
2023-04-24T02:32:53.302Z,9.95
2023-04-24T02:35:23.278Z,9.97
2023-04-24T02:37:55.962Z,9.97
2023-04-24T02:40:25.884Z,9.98
2023-04-24T02:42:55.851Z,9.94
2023-04-24T02:45:27.880Z,10.04
2023-04-24T02:47:57.800Z,10.07
2023-04-24T02:50:27.815Z,10.07
2023-04-24T02:53:00.496Z,10.21
2023-04-24T02:55:30.640Z,10.22
2023-04-24T02:58:01.156Z,10.35
2023-04-24T03:00:31.073Z,10.42
2023-04-24T03:03:01.210Z,10.37
2023-04-24T03:05:31.949Z,10.33
2023-04-24T03:08:04.972Z,10.38
2023-04-24T03:10:35.055Z,10.40
2023-04-24T03:13:04.868Z,10.32
2023-04-24T03:15:34.733Z,10.37
2023-04-24T03:18:04.750Z,10.33
2023-04-24T03:20:35.005Z,10.35
2023-04-24T03:23:08.644Z,10.35
2023-04-24T03:25:40.040Z,10.39
2023-04-24T03:28:10.216Z,10.22
2023-04-24T03:30:50.629Z,10.20
2023-04-24T03:33:21.529Z,10.15
2023-04-24T03:36:04.088Z,10.05
2023-04-24T03:38:44.780Z,9.95
2023-04-24T03:41:27.921Z,9.86
2023-04-24T03:44:03.939Z,9.72
2023-04-24T03:46:34.609Z,9.72
2023-04-24T03:49:05.672Z,9.71
2023-04-24T03:51:39.200Z,9.75
2023-04-24T03:54:20.123Z,9.80
2023-04-24T03:56:50.125Z,9.70
2023-04-24T03:59:20.460Z,9.54
2023-04-24T04:01:58.622Z,9.42
2023-04-24T04:04:28.889Z,9.34
2023-04-24T04:07:02.253Z,9.22
2023-04-24T04:09:35.092Z,9.09
2023-04-24T04:12:05.079Z,9.00
2023-04-24T04:14:36.741Z,9.01
2023-04-24T04:17:06.674Z,9.09
2023-04-24T04:19:36.608Z,9.18
2023-04-24T04:22:06.901Z,9.27
2023-04-24T04:24:47.443Z,9.41
2023-04-24T04:27:17.775Z,9.55
2023-04-24T04:30:09.725Z,9.70
2023-04-24T04:32:48.968Z,9.78
2023-04-24T04:35:19.010Z,9.89
2023-04-24T04:37:48.994Z,9.96
2023-04-24T04:40:31.291Z,9.92
2023-04-24T04:43:05.779Z,9.75
2023-04-24T04:45:44.021Z,9.51
2023-04-24T04:48:34.986Z,9.24
2023-04-24T04:51:06.670Z,9.20
2023-04-24T04:53:36.729Z,9.02
2023-04-24T04:56:09.523Z,8.73
2023-04-24T04:58:48.970Z,8.66
2023-04-24T05:01:20.508Z,8.56
2023-04-24T05:03:51.836Z,8.45
2023-04-24T05:06:24.231Z,8.36
2023-04-24T05:08:58.480Z,8.25
2023-04-24T05:11:51.355Z,8.19
2023-04-24T05:14:21.748Z,8.19
2023-04-24T05:16:52.797Z,8.26
2023-04-24T05:19:24.812Z,8.31
2023-04-24T05:21:54.749Z,8.45
2023-04-24T05:24:24.682Z,8.45
2023-04-24T05:27:18.495Z,8.44
2023-04-24T05:29:48.396Z,8.42
2023-04-24T05:32:18.268Z,8.40
2023-04-24T05:34:48.580Z,8.48
2023-04-24T05:37:18.611Z,8.46
2023-04-24T05:39:48.493Z,8.48
2023-04-24T05:42:21.007Z,8.62
2023-04-24T05:44:53.297Z,8.77
2023-04-24T05:47:24.569Z,8.62
2023-04-24T05:49:56.035Z,8.71
2023-04-24T05:52:26.935Z,8.91
2023-04-24T05:54:56.991Z,9.04
2023-04-24T05:57:33.028Z,9.30
2023-04-24T06:00:07.858Z,9.25
2023-04-24T06:02:43.911Z,9.38
2023-04-24T06:05:16.315Z,9.49
2023-04-24T06:07:46.287Z,9.43
2023-04-24T06:10:16.668Z,9.47
2023-04-24T06:12:51.195Z,9.56
2023-04-24T06:15:22.015Z,9.51
2023-04-24T06:18:04.574Z,9.58
2023-04-24T06:20:34.599Z,9.70
2023-04-24T06:23:05.817Z,9.77
2023-04-24T06:25:37.142Z,9.74
2023-04-24T06:28:10.155Z,10.20
2023-04-24T06:30:40.079Z,11.90
2023-04-24T06:33:20.096Z,12.97
2023-04-24T06:35:51.790Z,13.00
2023-04-24T06:38:21.954Z,13.21
2023-04-24T06:40:52.032Z,14.35
2023-04-24T06:43:24.543Z,15.94
2023-04-24T06:45:54.577Z,16.87
2023-04-24T06:48:24.912Z,18.18
2023-04-24T06:50:55.197Z,17.70
2023-04-24T06:53:26.689Z,18.03
2023-04-24T06:55:57.034Z,18.44
2023-04-24T06:58:30.551Z,18.24
2023-04-24T07:01:00.876Z,17.41
2023-04-24T07:03:31.943Z,16.53
2023-04-24T07:06:02.367Z,17.51
2023-04-24T07:08:34.385Z,18.22
2023-04-24T07:11:04.831Z,18.37
2023-04-24T07:13:37.605Z,17.18
2023-04-24T07:16:08.107Z,16.90
2023-04-24T07:18:39.698Z,16.35
2023-04-24T07:21:10.769Z,16.53
2023-04-24T07:23:42.469Z,16.74
2023-04-24T07:26:12.743Z,16.52
2023-04-24T07:28:45.671Z,14.52
2023-04-24T07:31:15.788Z,12.84
2023-04-24T07:33:45.703Z,12.53
2023-04-24T07:36:20.044Z,11.67
2023-04-24T07:38:50.120Z,10.86
2023-04-24T07:41:20.036Z,10.60
2023-04-24T07:43:52.482Z,10.45
2023-04-24T07:46:22.395Z,10.31
2023-04-24T07:49:05.380Z,10.22
2023-04-24T07:51:42.794Z,10.38
2023-04-24T07:54:13.006Z,11.72
2023-04-24T07:56:44.125Z,13.23
2023-04-24T07:59:16.619Z,15.45
2023-04-24T08:01:46.695Z,16.51
2023-04-24T08:04:16.775Z,17.12
2023-04-24T08:06:46.776Z,16.67
2023-04-24T08:09:16.627Z,17.18
2023-04-24T08:11:47.496Z,18.16
2023-04-24T08:14:20.128Z,18.39
2023-04-24T08:16:50.514Z,18.58
2023-04-24T08:19:20.441Z,19.40
2023-04-24T08:21:50.331Z,18.54
2023-04-24T08:24:20.344Z,18.79
2023-04-24T08:26:51.398Z,16.71
2023-04-24T08:29:24.699Z,15.45
2023-04-24T08:31:55.708Z,14.75
2023-04-24T08:34:25.743Z,14.52
2023-04-24T08:36:55.664Z,14.25
2023-04-24T08:39:25.559Z,14.41
2023-04-24T08:41:56.874Z,14.18
2023-04-24T08:44:29.360Z,13.94
2023-04-24T08:46:59.372Z,13.52
2023-04-24T08:49:30.842Z,15.08
2023-04-24T08:52:01.227Z,14.84
2023-04-24T08:54:31.984Z,15.20
2023-04-24T08:57:04.833Z,16.12
2023-04-24T08:59:38.673Z,16.88
2023-04-24T09:02:08.842Z,16.53
2023-04-24T09:04:39.597Z,15.64
2023-04-24T09:07:11.515Z,14.47
2023-04-24T09:09:43.115Z,14.01
2023-04-24T09:12:13.580Z,13.92
2023-04-24T09:14:46.485Z,14.30
2023-04-24T09:17:16.713Z,15.25
2023-04-24T09:19:46.622Z,15.54
2023-04-24T09:22:16.643Z,15.70
2023-04-24T09:24:46.564Z,14.82
2023-04-24T09:27:18.379Z,14.48
2023-04-24T09:30:00.171Z,14.51
2023-04-24T09:32:31.302Z,14.32
2023-04-24T09:35:16.022Z,13.82
2023-04-24T09:37:47.788Z,13.50
2023-04-24T09:40:19.995Z,13.34
2023-04-24T09:42:50.758Z,13.52
2023-04-24T09:45:24.251Z,13.48
2023-04-24T09:47:56.871Z,13.64
2023-04-24T09:50:26.957Z,13.80
2023-04-24T09:53:02.035Z,13.57
2023-04-24T09:55:33.613Z,14.88
2023-04-24T09:58:06.336Z,16.76
2023-04-24T10:00:38.909Z,17.35
2023-04-24T10:03:09.827Z,18.50
2023-04-24T10:05:42.334Z,17.90
2023-04-24T10:08:16.946Z,17.59
2023-04-24T10:10:48.166Z,16.40
2023-04-24T10:13:18.855Z,15.16
2023-04-24T10:15:52.950Z,14.51
2023-04-24T10:18:25.440Z,13.54
2023-04-24T10:20:57.329Z,13.04
2023-04-24T10:23:29.218Z,13.82
2023-04-24T10:25:59.861Z,15.22
2023-04-24T10:28:31.792Z,15.98
2023-04-24T10:31:05.061Z,16.01
2023-04-24T10:33:35.732Z,16.83
2023-04-24T10:36:06.296Z,16.85
2023-04-24T10:38:36.350Z,17.66
2023-04-24T10:41:17.426Z,16.62
2023-04-24T10:43:47.573Z,17.15
2023-04-24T10:46:24.598Z,18.15
2023-04-24T10:48:57.387Z,18.06
2023-04-24T10:51:28.620Z,17.64
2023-04-24T10:54:01.612Z,16.52
2023-04-24T10:56:31.568Z,16.37
2023-04-24T10:59:02.327Z,15.53
2023-04-24T11:01:36.244Z,15.22
2023-04-24T11:04:07.308Z,14.37
2023-04-24T11:06:38.593Z,14.09
2023-04-24T11:09:10.133Z,14.09
2023-04-24T11:11:41.591Z,13.55
2023-04-24T11:14:12.008Z,13.64
2023-04-24T11:16:57.353Z,13.63
2023-04-24T11:19:29.780Z,13.48
2023-04-24T11:22:04.355Z,12.85
2023-04-24T11:24:36.851Z,12.59
2023-04-24T11:27:15.225Z,12.80
2023-04-24T11:29:47.093Z,12.58
2023-04-24T11:32:29.367Z,12.41
2023-04-24T11:35:01.751Z,12.39
2023-04-24T11:37:32.810Z,12.49
2023-04-24T11:40:03.747Z,12.72
2023-04-24T11:42:37.876Z,12.99
2023-04-24T11:45:12.996Z,13.94
2023-04-24T11:47:46.809Z,14.66
2023-04-24T11:50:19.932Z,14.86
2023-04-24T11:52:51.729Z,15.08
2023-04-24T11:55:30.781Z,14.25
2023-04-24T11:58:02.814Z,13.96
2023-04-24T12:00:35.468Z,12.93
2023-04-24T12:03:13.050Z,12.77
2023-04-24T12:05:45.108Z,12.25
2023-04-24T12:08:15.261Z,12.90
2023-04-24T12:10:45.096Z,13.05
2023-04-24T12:13:15.091Z,13.80
2023-04-24T12:15:45.077Z,13.85
2023-04-24T12:18:19.618Z,14.89
2023-04-24T12:20:49.478Z,14.66
2023-04-24T12:23:20.487Z,15.59
2023-04-24T12:25:50.337Z,16.12
2023-04-24T12:28:20.324Z,14.91
2023-04-24T12:30:52.497Z,14.30
2023-04-24T12:33:25.887Z,13.08
2023-04-24T12:35:57.097Z,12.64
2023-04-24T12:38:30.689Z,12.27
2023-04-24T12:41:10.843Z,12.30
2023-04-24T12:43:40.964Z,13.02
2023-04-24T12:46:11.018Z,13.49
2023-04-24T12:48:43.730Z,13.58
2023-04-24T12:51:13.764Z,14.05
2023-04-24T12:53:43.946Z,14.13
2023-04-24T12:56:14.014Z,15.04
2023-04-24T12:58:43.956Z,14.60
2023-04-24T13:01:13.980Z,14.33
2023-04-24T13:03:46.857Z,13.84
2023-04-24T13:06:17.148Z,13.47
2023-04-24T13:08:48.405Z,13.26
2023-04-24T13:11:18.282Z,12.97
2023-04-24T13:13:48.145Z,12.71
2023-04-24T13:16:18.028Z,12.61
2023-04-24T13:18:50.752Z,12.47
2023-04-24T13:21:20.735Z,12.47
2023-04-24T13:23:50.680Z,12.42
2023-04-24T13:26:21.063Z,12.43
2023-04-24T13:28:50.994Z,11.92
2023-04-24T13:31:20.992Z,11.24
2023-04-24T13:33:53.564Z,10.87
2023-04-24T13:36:23.739Z,11.45
2023-04-24T13:38:53.686Z,12.97
2023-04-24T13:41:23.701Z,13.38
2023-04-24T13:43:53.720Z,14.14
2023-04-24T13:46:23.775Z,14.40
2023-04-24T13:48:56.440Z,14.52
2023-04-24T13:51:28.150Z,13.81
2023-04-24T13:53:58.049Z,13.15
2023-04-24T13:56:27.907Z,13.02
2023-04-24T13:58:57.908Z,12.60
2023-04-24T14:01:28.047Z,12.13
2023-04-24T14:04:01.051Z,11.81
2023-04-24T14:06:31.157Z,11.34
2023-04-24T14:09:02.435Z,11.13
2023-04-24T14:11:32.824Z,10.75
2023-04-24T14:14:04.008Z,10.51
2023-04-24T14:16:34.403Z,10.93
2023-04-24T14:19:07.473Z,11.98
2023-04-24T14:21:37.671Z,13.53
2023-04-24T14:24:07.723Z,15.03
2023-04-24T14:26:38.643Z,14.78
2023-04-24T14:29:14.910Z,14.25
2023-04-24T14:31:46.082Z,13.62
2023-04-24T14:34:19.059Z,12.59
2023-04-24T14:36:49.229Z,12.60
2023-04-24T14:39:19.182Z,12.50
2023-04-24T14:41:49.017Z,12.28
2023-04-24T14:44:19.093Z,11.03
2023-04-24T14:46:49.171Z,10.37
2023-04-24T14:49:21.643Z,10.11
2023-04-24T14:51:51.519Z,10.45
2023-04-24T14:54:24.416Z,10.91
2023-04-24T14:56:54.643Z,11.13
2023-04-24T14:59:24.485Z,13.34
2023-04-24T15:02:14.506Z,15.72
2023-04-24T15:04:48.078Z,16.95
2023-04-24T15:07:18.076Z,14.44
2023-04-24T15:09:48.540Z,13.75
2023-04-24T15:12:18.451Z,15.81
2023-04-24T15:14:48.412Z,17.86
2023-04-24T15:17:18.266Z,19.36
2023-04-24T15:19:50.768Z,18.11
2023-04-24T15:22:20.636Z,16.05
2023-04-24T15:24:50.557Z,15.43
2023-04-24T15:27:21.011Z,14.12
2023-04-24T15:29:51.401Z,13.69
2023-04-24T15:32:21.707Z,13.06
2023-04-24T15:35:07.179Z,12.99
2023-04-24T15:37:40.056Z,12.99
2023-04-24T15:40:12.360Z,13.15
2023-04-24T15:42:42.875Z,12.73
2023-04-24T15:45:13.830Z,12.28
2023-04-24T15:47:44.381Z,12.47
2023-04-24T15:50:17.579Z,12.40
2023-04-24T15:52:47.968Z,12.32
2023-04-24T15:55:18.192Z,11.33
2023-04-24T15:57:48.791Z,10.53
2023-04-24T16:00:19.941Z,10.23
2023-04-24T16:02:52.203Z,11.04
2023-04-24T16:05:25.034Z,13.38
2023-04-24T16:07:56.074Z,14.20
2023-04-24T16:10:26.326Z,12.96
2023-04-24T16:12:56.650Z,12.94
2023-04-24T16:15:26.974Z,15.52
2023-04-24T16:17:57.225Z,18.85
2023-04-24T16:20:30.094Z,21.03
2023-04-24T16:23:00.729Z,22.68
2023-04-24T16:25:31.286Z,21.53
2023-04-24T16:28:02.029Z,22.22
2023-04-24T16:30:32.444Z,22.41
2023-04-24T16:33:05.822Z,19.90
2023-04-24T16:35:38.769Z,16.74
2023-04-24T16:38:09.424Z,15.43
2023-04-24T16:40:39.656Z,13.98
2023-04-24T16:43:10.093Z,13.49
2023-04-24T16:45:40.416Z,12.87
2023-04-24T16:48:11.636Z,12.56
2023-04-24T16:50:44.400Z,12.44
2023-04-24T16:53:14.655Z,12.47
2023-04-24T16:55:44.983Z,12.55
2023-04-24T16:58:15.314Z,12.48
2023-04-24T17:00:46.781Z,12.59
2023-04-24T17:03:17.205Z,12.68
2023-04-24T17:05:50.100Z,12.51
2023-04-24T17:08:20.754Z,12.31
2023-04-24T17:10:51.166Z,12.32
2023-04-24T17:13:21.485Z,12.38
2023-04-24T17:15:51.779Z,14.71
2023-04-24T17:18:22.079Z,16.18
2023-04-24T17:20:55.058Z,17.08
2023-04-24T17:23:25.487Z,19.19
2023-04-24T17:25:56.069Z,19.03
2023-04-24T17:28:28.428Z,18.15
2023-04-24T17:30:59.128Z,19.56
2023-04-24T17:33:30.200Z,19.09
2023-04-24T17:36:04.020Z,16.97
2023-04-24T17:38:34.442Z,15.46
2023-04-24T17:41:04.690Z,13.91
2023-04-24T17:43:35.220Z,12.48
2023-04-24T17:46:07.572Z,12.13
2023-04-24T17:48:38.234Z,11.62
2023-04-24T17:51:11.197Z,11.41
2023-04-24T17:53:41.979Z,11.19
2023-04-24T17:56:12.234Z,11.08
2023-04-24T17:58:43.226Z,10.72
2023-04-24T18:01:13.519Z,10.70
2023-04-24T18:03:44.540Z,10.52
2023-04-24T18:06:18.958Z,10.48
2023-04-24T18:08:49.359Z,10.39
2023-04-24T18:11:19.866Z,10.37
2023-04-24T18:13:50.842Z,10.37
2023-04-24T18:16:21.972Z,10.42
2023-04-24T18:18:54.056Z,10.45
2023-04-24T18:21:26.940Z,10.41
2023-04-24T18:24:00.487Z,10.45
2023-04-24T18:26:31.329Z,10.33
2023-04-24T18:29:01.545Z,10.31
2023-04-24T18:31:32.755Z,10.36
2023-04-24T18:34:03.163Z,10.25
2023-04-24T18:36:35.991Z,10.15
2023-04-24T18:39:06.270Z,10.07
2023-04-24T18:41:36.524Z,9.98
2023-04-24T18:44:06.746Z,9.91
2023-04-24T18:46:41.658Z,9.82
2023-04-24T18:49:11.996Z,9.61
2023-04-24T18:51:53.625Z,9.44
2023-04-24T18:54:25.338Z,9.33
2023-04-24T18:56:55.807Z,9.14
2023-04-24T18:59:27.502Z,8.94
2023-04-24T19:01:57.839Z,8.69
2023-04-24T19:04:28.858Z,8.62
2023-04-24T19:07:01.881Z,8.60
2023-04-24T19:09:32.170Z,8.51
2023-04-24T19:12:03.003Z,8.56
2023-04-24T19:14:33.268Z,8.61
2023-04-24T19:17:03.811Z,8.68
2023-04-24T19:19:34.185Z,8.76
2023-04-24T19:22:07.816Z,8.66
2023-04-24T19:24:38.227Z,8.49
2023-04-24T19:27:08.432Z,8.43
2023-04-24T19:29:38.725Z,8.39
2023-04-24T19:32:09.171Z,8.18
2023-04-24T19:34:40.610Z,8.06
2023-04-24T19:37:13.834Z,7.98
2023-04-24T19:39:44.343Z,7.97
2023-04-24T19:42:14.545Z,7.91
2023-04-24T19:44:44.723Z,7.69
2023-04-24T19:47:15.633Z,7.63
2023-04-24T19:49:45.844Z,7.56
2023-04-24T19:52:19.717Z,7.49
2023-04-24T19:54:52.254Z,7.46
2023-04-24T19:57:22.470Z,7.43
2023-04-24T19:59:52.651Z,7.43
2023-04-24T20:02:23.557Z,7.36
2023-04-24T20:04:54.077Z,7.25
2023-04-24T20:07:27.190Z,7.21
2023-04-24T20:09:57.431Z,7.25
2023-04-24T20:12:27.733Z,7.12
2023-04-24T20:14:58.107Z,7.03
2023-04-24T20:17:28.473Z,7.06
2023-04-24T20:19:58.878Z,7.09
2023-04-24T20:22:35.517Z,7.13
2023-04-24T20:25:05.903Z,7.25
2023-04-24T20:27:36.436Z,7.25
2023-04-24T20:30:07.068Z,7.33
2023-04-24T20:32:37.395Z,7.41
2023-04-24T20:35:08.102Z,7.52
2023-04-24T20:37:41.537Z,7.67
2023-04-24T20:40:14.407Z,7.74
2023-04-24T20:42:46.480Z,7.76
2023-04-24T20:45:18.080Z,7.73
2023-04-24T20:47:50.629Z,7.72
2023-04-24T20:50:21.173Z,7.70
2023-04-24T20:52:54.081Z,7.56
2023-04-24T20:55:24.516Z,7.55
2023-04-24T20:57:55.116Z,7.52
2023-04-24T21:00:27.226Z,7.34
2023-04-24T21:02:57.857Z,7.17
2023-04-24T21:05:28.197Z,6.91
2023-04-24T21:08:01.317Z,6.79
2023-04-24T21:10:31.762Z,6.69
2023-04-24T21:13:01.960Z,6.47
2023-04-24T21:15:32.517Z,6.34
2023-04-24T21:18:02.968Z,6.26
2023-04-24T21:20:33.271Z,6.10
2023-04-24T21:23:06.139Z,6.00
2023-04-24T21:25:36.602Z,5.96
2023-04-24T21:28:07.096Z,6.00
2023-04-24T21:30:37.327Z,5.93
2023-04-24T21:33:07.684Z,5.92
2023-04-24T21:35:38.279Z,5.95
2023-04-24T21:38:11.189Z,5.93
2023-04-24T21:40:41.385Z,6.00
2023-04-24T21:43:12.510Z,6.06
2023-04-24T21:45:42.813Z,5.99
2023-04-24T21:48:13.075Z,6.03
2023-04-24T21:50:43.316Z,6.11
2023-04-24T21:53:16.423Z,6.15
2023-04-24T21:55:47.353Z,6.34
2023-04-24T21:58:17.662Z,6.59
2023-04-24T22:00:47.867Z,6.71
2023-04-24T22:03:18.211Z,6.81
2023-04-24T22:05:48.631Z,6.97
2023-04-24T22:08:21.513Z,7.10
2023-04-24T22:10:51.795Z,7.24
2023-04-24T22:13:22.063Z,7.38
2023-04-24T22:15:53.116Z,7.51
2023-04-24T22:18:30.593Z,7.56
2023-04-24T22:21:06.950Z,7.63
2023-04-24T22:23:39.987Z,7.64
2023-04-24T22:26:10.375Z,7.65
2023-04-24T22:28:40.617Z,7.73
2023-04-24T22:31:11.184Z,7.75
2023-04-24T22:33:41.420Z,7.79
2023-04-24T22:36:11.895Z,7.72
2023-04-24T22:38:44.697Z,7.80
2023-04-24T22:41:15.187Z,7.79
2023-04-24T22:43:45.478Z,7.75
2023-04-24T22:46:15.813Z,7.79
2023-04-24T22:48:47.526Z,7.73
2023-04-24T22:51:18.273Z,7.43
2023-04-24T22:53:51.867Z,7.37
2023-04-24T22:56:22.171Z,7.34
2023-04-24T22:58:52.424Z,7.31
2023-04-24T23:01:22.765Z,7.25
2023-04-24T23:03:53.715Z,7.31
2023-04-24T23:06:24.244Z,7.39
2023-04-24T23:08:57.079Z,7.47
2023-04-24T23:11:27.334Z,7.38
2023-04-24T23:13:57.945Z,7.42
2023-04-24T23:16:28.241Z,7.42
2023-04-24T23:18:58.469Z,7.27
2023-04-24T23:21:29.274Z,7.39
2023-04-24T23:24:02.331Z,7.48
2023-04-24T23:26:32.494Z,7.49
2023-04-24T23:29:02.953Z,7.51
2023-04-24T23:31:33.189Z,7.50
2023-04-24T23:34:03.390Z,7.37
2023-04-24T23:36:33.654Z,7.35
2023-04-24T23:39:07.554Z,7.42
2023-04-24T23:41:39.028Z,7.58
2023-04-24T23:44:09.358Z,7.68
2023-04-24T23:46:39.815Z,7.73
2023-04-24T23:49:10.075Z,7.80
2023-04-24T23:51:40.460Z,7.68
2023-04-24T23:54:13.428Z,7.76
2023-04-24T23:56:43.963Z,7.79
2023-04-24T23:59:14.154Z,7.72
